Strona główna
METAR-TAF:

METAR-TAF

Lotnisko :

Bejrut, Liban

Szerokość geograficzna: 33-49N, Długość geograficzna: 035-29E, wysokość: 29 m

METAR: brakujący

czas: 06:38 (03:38 UTC)

Prognoza

Raport powstał 5 godziny i 38 minut temu, godzina 22:00 UTC
Prognoza ważna od 24 godzina 00 UTC do 25 godzina 06 UTC
Wiatr 2 kt z kierunków zmiennych
Widzialność 10 km lub więcej
Rozproszone chmury na wysokości 2600 ft
Stopniowe zmiany
od 24 godzina 06 UTC do 24 godzina 09 UTC
Wiatr 8 kt od zachodnio-południowy zachód
Widzialność: 8000 m
Rozproszone chmury na wysokości 3000 ft
Stopniowe zmiany
od 24 godzina 15 UTC do 24 godzina 18 UTC
Wiatr 8 kt od północno-północny zachód
Stopniowe zmiany
od 24 godzina 18 UTC do 24 godzina 21 UTC
Wiatr 2 kt z kierunków zmiennych
Stopniowe zmiany
od 25 godzina 00 UTC do 25 godzina 03 UTC
Wiatr 8 kt od południowy zachód

TAF: OLBA 232200Z 2400/2506 VRB02KT 9999 SCT026 BECMG 2406/2409 25008KT 8000 SCT030 BECMG 2415/2418 33008KT BECMG 2418/2421 VRB02KT BECMG 2500/2503 22008KT

Obserwacja i prognoza pogody dla ponad 4000 lotnisk (raport METAR i TAF).

Dostępne stacje oznaczono żółtymi i czerwonymi punktami na mapie.

Najedź kursorem aby zobaczyć nazwę stacji.

Kliknij aby zobaczyć obserwacje i prognozy pogody.

Aby zmienić mapę: kliknij na zielony przycisk z czarnym krzyżykiem, aby powiększyć; na zielony przycisk z myślnikiem, aby pomniejszyć; na zielone strzałki, aby przejść do map sąsiednich.


METAR-TAF: